Time;durP1;ratioP1;P1;durP2;ratioP2;P2;SDS_P1;SDS_P2;PMS_P1;PMS_P2;Temp;Humidity;BMP_temperature;BMP_pressure;BME280_temperature;BME280_humidity;BME280_pressure;Samples;Min_cycle;Max_cycle;Signal;HPM_P1;HPM_P2
2024/03/01 00:01:41;;;;;;;18.17;13.23;;;9.60;99.90;;;;;;4897432;29;20582;-76
2024/03/01 00:04:07;;;;;;;18.53;13.60;;;9.50;99.90;;;;;;4896731;29;20551;-77
2024/03/01 00:06:33;;;;;;;15.97;13.57;;;9.50;99.90;;;;;;4898246;29;20193;-76
2024/03/01 00:08:58;;;;;;;19.30;14.40;;;9.50;99.90;;;;;;4897223;29;20626;-76
2024/03/01 00:11:24;;;;;;;16.77;12.37;;;9.50;99.90;;;;;;4897615;29;20194;-76
2024/03/01 00:13:50;;;;;;;16.37;11.40;;;9.50;99.90;;;;;;4898833;29;20209;-76
2024/03/01 00:16:16;;;;;;;20.10;15.00;;;9.50;99.90;;;;;;4896713;29;20187;-77
2024/03/01 00:18:43;;;;;;;17.80;13.37;;;9.40;99.90;;;;;;4898355;29;20826;-76
2024/03/01 00:21:15;;;;;;;16.67;12.60;;;9.40;99.90;;;;;;4899299;29;20175;-77
2024/03/01 00:23:41;;;;;;;20.17;15.63;;;9.40;99.90;;;;;;4885687;29;20190;-77
2024/03/01 00:26:07;;;;;;;21.55;15.38;;;9.40;99.90;;;;;;4898348;29;20186;-77
2024/03/01 00:28:34;;;;;;;19.77;15.77;;;9.40;99.90;;;;;;4897086;29;20206;-77
2024/03/01 00:30:59;;;;;;;18.63;13.27;;;9.40;99.90;;;;;;4896473;29;20606;-77
2024/03/01 00:33:25;;;;;;;18.00;13.13;;;9.40;99.90;;;;;;4896974;29;20209;-77
2024/03/01 00:35:51;;;;;;;20.00;14.87;;;9.40;99.90;;;;;;4895586;29;20178;-77
2024/03/01 00:38:16;;;;;;;19.13;13.67;;;9.50;99.90;;;;;;4895945;29;20206;-77
2024/03/01 00:40:42;;;;;;;15.73;11.57;;;9.50;99.90;;;;;;4895340;29;20179;-77
2024/03/01 00:43:08;;;;;;;17.10;12.63;;;9.60;99.90;;;;;;4895101;29;20190;-77
2024/03/01 00:45:33;;;;;;;21.87;14.80;;;9.60;99.90;;;;;;4896310;29;20558;-77
2024/03/01 00:47:59;;;;;;;16.90;13.23;;;9.60;99.90;;;;;;4895390;29;20198;-77
2024/03/01 00:50:26;;;;;;;16.03;12.37;;;9.60;99.90;;;;;;4895427;29;20665;-77
2024/03/01 00:52:51;;;;;;;20.98;13.52;;;9.60;99.90;;;;;;4897732;29;20689;-77
2024/03/01 00:55:17;;;;;;;16.43;12.90;;;9.60;99.90;;;;;;4897604;29;20207;-77
2024/03/01 00:57:46;;;;;;;17.73;12.93;;;9.60;99.90;;;;;;4896487;29;20199;-77
2024/03/01 01:00:12;;;;;;;14.52;12.65;;;9.60;99.90;;;;;;4903505;29;20174;-77
2024/03/01 01:02:38;;;;;;;17.55;13.27;;;9.50;99.90;;;;;;4898197;29;20246;-77
2024/03/01 01:05:04;;;;;;;22.33;14.50;;;9.50;99.90;;;;;;4894985;29;20186;-77
2024/03/01 01:07:29;;;;;;;17.90;12.77;;;9.40;99.90;;;;;;4894723;29;20994;-77
2024/03/01 01:09:55;;;;;;;22.50;15.37;;;9.40;99.90;;;;;;4894821;29;20611;-77
2024/03/01 01:12:21;;;;;;;19.53;13.33;;;9.40;99.90;;;;;;4894961;29;20548;-77
2024/03/01 01:14:46;;;;;;;18.90;14.53;;;9.40;99.90;;;;;;4888327;29;20293;-77
2024/03/01 01:17:12;;;;;;;17.30;13.17;;;9.30;99.90;;;;;;4894180;29;20250;-77
2024/03/01 01:19:38;;;;;;;21.27;15.37;;;9.30;99.90;;;;;;4879437;29;20178;-77
2024/03/01 01:22:04;;;;;;;17.90;13.33;;;9.20;99.90;;;;;;4894502;29;20179;-77
2024/03/01 01:24:29;;;;;;;16.53;12.60;;;9.20;99.90;;;;;;4895680;29;20657;-77
2024/03/01 01:26:56;;;;;;;17.10;14.20;;;9.20;99.90;;;;;;4878823;29;20191;-77
2024/03/01 01:29:21;;;;;;;17.73;13.50;;;9.20;99.90;;;;;;4909924;29;20202;-77
2024/03/01 01:31:47;;;;;;;15.57;12.07;;;9.20;99.90;;;;;;4894529;29;20193;-77
2024/03/01 01:34:13;;;;;;;18.90;12.53;;;9.10;99.90;;;;;;4894598;29;20206;-78
2024/03/01 01:36:40;;;;;;;17.60;11.80;;;9.10;99.90;;;;;;4897459;29;20178;-77
2024/03/01 01:39:06;;;;;;;20.38;16.27;;;9.10;99.90;;;;;;4895769;29;20209;-77
2024/03/01 01:41:32;;;;;;;18.45;14.20;;;9.10;99.90;;;;;;4895687;29;20183;-77
2024/03/01 01:43:58;;;;;;;16.30;13.55;;;9.00;99.90;;;;;;4894503;29;20582;-78
2024/03/01 01:46:24;;;;;;;16.30;13.27;;;9.00;99.90;;;;;;4895340;29;20189;-77
2024/03/01 01:48:49;;;;;;;19.93;14.13;;;9.10;99.90;;;;;;4895655;29;20629;-78
2024/03/01 01:51:17;;;;;;;22.97;15.80;;;9.10;99.90;;;;;;4895437;29;20194;-77
2024/03/01 01:53:44;;;;;;;20.05;15.45;;;9.10;99.90;;;;;;4895686;29;20218;-77
2024/03/01 01:56:11;;;;;;;15.65;13.07;;;9.10;99.90;;;;;;4895006;29;20245;-77
2024/03/01 01:58:38;;;;;;;18.88;13.38;;;9.10;99.90;;;;;;4894520;29;20201;-77
2024/03/01 02:01:07;;;;;;;15.70;12.43;;;9.10;99.90;;;;;;4895518;29;20205;-77
2024/03/01 02:03:38;;;;;;;16.65;13.35;;;9.20;99.90;;;;;;4895449;29;20188;-77
2024/03/01 02:06:05;;;;;;;19.48;14.45;;;9.10;99.90;;;;;;4895142;29;20178;-77
2024/03/01 02:08:35;;;;;;;17.48;13.05;;;9.20;99.90;;;;;;4894293;29;20202;-77
2024/03/01 02:11:02;;;;;;;14.30;11.25;;;9.10;99.90;;;;;;4895501;29;20182;-77
2024/03/01 02:13:29;;;;;;;19.75;14.60;;;9.10;99.90;;;;;;4897266;29;20174;-77
2024/03/01 02:15:54;;;;;;;18.35;13.27;;;9.10;99.90;;;;;;4895991;29;20527;-77
2024/03/01 02:18:21;;;;;;;16.93;13.60;;;9.10;99.90;;;;;;4901944;29;20301;-77
2024/03/01 02:20:53;;;;;;;19.13;13.05;;;9.00;99.90;;;;;;4899044;29;20595;-77
2024/03/01 02:23:23;;;;;;;19.33;14.52;;;9.00;99.90;;;;;;4899281;29;20552;-77
2024/03/01 02:25:48;;;;;;;21.08;15.10;;;9.00;99.90;;;;;;4899221;29;20182;-77
2024/03/01 02:28:14;;;;;;;21.43;15.37;;;9.00;99.90;;;;;;4898518;29;20202;-77
2024/03/01 02:30:40;;;;;;;19.37;14.47;;;9.00;99.90;;;;;;4897591;29;20202;-78
2024/03/01 02:33:05;;;;;;;20.80;15.70;;;9.00;99.90;;;;;;4881674;29;20178;-77
2024/03/01 02:35:31;;;;;;;17.77;13.53;;;9.00;99.90;;;;;;4898746;29;20297;-77
2024/03/01 02:37:57;;;;;;;14.90;11.63;;;9.00;99.90;;;;;;4897929;29;20669;-77
2024/03/01 02:40:22;;;;;;;17.57;13.10;;;9.10;99.90;;;;;;4898761;29;20193;-77
2024/03/01 02:42:48;;;;;;;20.63;13.67;;;9.10;99.90;;;;;;4898928;29;20187;-77
2024/03/01 02:45:14;;;;;;;22.77;15.10;;;9.10;99.90;;;;;;4898537;29;20322;-77
2024/03/01 02:47:39;;;;;;;17.00;13.97;;;9.10;99.90;;;;;;4898288;29;20206;-77
2024/03/01 02:50:08;;;;;;;22.40;16.77;;;9.10;99.90;;;;;;4898282;29;20539;-77
2024/03/01 02:52:35;;;;;;;18.48;13.07;;;9.10;99.90;;;;;;4901081;29;20179;-77
2024/03/01 02:55:01;;;;;;;18.90;13.80;;;9.10;99.90;;;;;;4898451;29;20270;-77
2024/03/01 02:57:27;;;;;;;18.98;14.05;;;9.20;99.90;;;;;;4896686;29;20197;-77
2024/03/01 02:59:53;;;;;;;16.92;13.13;;;9.20;99.90;;;;;;4897184;29;20273;-77
2024/03/01 03:02:19;;;;;;;16.77;13.50;;;9.20;99.90;;;;;;4898249;29;20266;-77
2024/03/01 03:04:45;;;;;;;19.27;13.30;;;9.20;99.90;;;;;;4898373;29;20617;-77
2024/03/01 03:07:10;;;;;;;15.70;12.70;;;9.20;99.90;;;;;;4896369;29;20183;-76
2024/03/01 03:09:42;;;;;;;17.80;13.70;;;9.20;99.90;;;;;;4898254;29;20242;-77
2024/03/01 03:12:09;;;;;;;18.77;13.68;;;9.30;99.90;;;;;;4898003;29;20592;-76
2024/03/01 03:14:35;;;;;;;19.35;13.25;;;9.30;99.90;;;;;;4898159;29;20262;-76
2024/03/01 03:17:01;;;;;;;16.57;13.23;;;9.30;99.90;;;;;;4897403;29;20182;-77
2024/03/01 03:19:26;;;;;;;16.10;13.57;;;9.30;99.90;;;;;;4896562;29;20770;-76
2024/03/01 03:21:53;;;;;;;16.30;11.87;;;9.30;99.90;;;;;;4896653;29;20213;-76
2024/03/01 03:24:19;;;;;;;18.05;13.93;;;9.30;99.90;;;;;;4898071;29;20554;-76
2024/03/01 03:26:45;;;;;;;18.40;12.38;;;9.40;99.90;;;;;;4897880;29;20257;-77
2024/03/01 03:29:10;;;;;;;18.80;13.80;;;9.40;99.90;;;;;;4901984;29;20244;-76
2024/03/01 03:31:36;;;;;;;16.93;13.70;;;9.40;99.90;;;;;;4892043;29;20541;-77
2024/03/01 03:34:04;;;;;;;17.13;12.70;;;9.40;99.90;;;;;;4899677;29;20554;-78
2024/03/01 03:36:30;;;;;;;18.63;13.80;;;9.40;99.90;;;;;;4897152;29;20178;-77
2024/03/01 03:38:56;;;;;;;21.52;16.50;;;9.40;99.90;;;;;;4881946;29;20250;-77
2024/03/01 03:41:22;;;;;;;20.40;13.10;;;9.40;99.90;;;;;;4899873;29;20606;-76
2024/03/01 03:43:47;;;;;;;17.20;12.13;;;9.40;99.90;;;;;;4898513;29;20186;-78
2024/03/01 03:46:13;;;;;;;19.60;13.57;;;9.50;99.90;;;;;;4900246;29;20936;-78
2024/03/01 03:48:38;;;;;;;17.57;13.90;;;9.50;99.90;;;;;;4901179;29;20242;-78
2024/03/01 03:51:04;;;;;;;18.00;12.37;;;9.50;99.90;;;;;;4896493;29;20193;-77
2024/03/01 03:53:30;;;;;;;15.77;12.27;;;9.40;99.90;;;;;;4897716;29;20197;-77
2024/03/01 03:55:56;;;;;;;16.60;11.63;;;9.50;99.90;;;;;;4897718;29;20710;-78
2024/03/01 03:58:22;;;;;;;19.55;13.82;;;9.50;99.90;;;;;;4896773;29;20195;-78
2024/03/01 04:00:48;;;;;;;16.60;12.43;;;9.50;99.90;;;;;;4896266;29;20178;-78
2024/03/01 04:03:13;;;;;;;15.70;11.53;;;9.50;99.90;;;;;;4896207;29;20174;-78
2024/03/01 04:05:39;;;;;;;15.27;11.43;;;9.50;99.90;;;;;;4900244;29;20182;-77
2024/03/01 04:08:05;;;;;;;15.00;11.23;;;9.50;99.90;;;;;;4897164;29;20209;-78
2024/03/01 04:10:33;;;;;;;14.80;12.07;;;9.50;99.90;;;;;;4897160;29;20535;-78
2024/03/01 04:13:00;;;;;;;15.38;12.70;;;9.50;99.90;;;;;;4897352;29;20240;-78
2024/03/01 04:15:26;;;;;;;16.13;12.48;;;9.40;99.90;;;;;;4895726;29;20202;-78
2024/03/01 04:17:52;;;;;;;16.90;11.10;;;9.40;99.90;;;;;;4895196;29;20695;-78
2024/03/01 04:20:18;;;;;;;15.30;10.93;;;9.40;99.90;;;;;;4896814;29;20590;-78
2024/03/01 04:22:44;;;;;;;12.17;9.17;;;9.50;99.90;;;;;;4896984;29;20174;-78
2024/03/01 04:25:09;;;;;;;15.03;9.67;;;9.50;99.90;;;;;;4895861;29;20185;-78
2024/03/01 04:27:38;;;;;;;14.27;12.00;;;9.50;99.90;;;;;;4896617;29;20692;-78
2024/03/01 04:30:08;;;;;;;15.85;11.80;;;9.50;99.90;;;;;;4896624;29;20642;-78
2024/03/01 04:32:34;;;;;;;16.38;11.02;;;9.50;99.90;;;;;;4896516;29;20504;-77
2024/03/01 04:35:00;;;;;;;17.73;11.98;;;9.60;99.90;;;;;;4896756;29;20190;-78
2024/03/01 04:37:26;;;;;;;15.60;10.95;;;9.60;99.90;;;;;;4896008;29;20241;-79
2024/03/01 04:39:52;;;;;;;13.17;10.80;;;9.60;99.90;;;;;;4895049;29;20190;-78
2024/03/01 04:42:17;;;;;;;13.33;10.00;;;9.60;99.90;;;;;;4899844;29;20186;-77
2024/03/01 04:44:43;;;;;;;16.07;10.63;;;9.70;99.90;;;;;;4895572;29;20297;-76
2024/03/01 04:47:10;;;;;;;16.07;11.77;;;9.60;99.90;;;;;;4896011;29;20197;-77
2024/03/01 04:49:36;;;;;;;14.55;11.60;;;9.60;99.90;;;;;;4887719;29;20206;-76
2024/03/01 04:52:01;;;;;;;14.50;10.43;;;9.70;99.90;;;;;;4895230;29;20590;-76
2024/03/01 04:54:27;;;;;;;14.07;11.17;;;9.70;99.90;;;;;;4894990;29;20578;-76
2024/03/01 04:57:05;;;;;;;14.37;10.87;;;9.70;99.90;;;;;;4894653;29;20182;-77
2024/03/01 04:59:38;;;;;;;14.27;10.55;;;9.70;99.90;;;;;;4879283;29;20198;-76
2024/03/01 05:02:05;;;;;;;11.10;9.18;;;9.70;99.90;;;;;;4896454;29;20219;-76
2024/03/01 05:04:31;;;;;;;13.05;10.00;;;9.70;99.90;;;;;;4896157;29;20197;-76
2024/03/01 05:06:56;;;;;;;13.90;10.37;;;9.80;99.90;;;;;;4895880;29;20577;-76
2024/03/01 05:09:22;;;;;;;13.67;10.23;;;9.80;99.90;;;;;;4895826;29;20622;-76
2024/03/01 05:11:48;;;;;;;17.60;10.47;;;9.80;99.90;;;;;;4894763;29;20190;-76
2024/03/01 05:14:13;;;;;;;14.13;9.97;;;9.80;99.90;;;;;;4895594;29;20205;-76
2024/03/01 05:16:39;;;;;;;12.33;10.03;;;9.90;99.90;;;;;;4895581;29;20291;-77
2024/03/01 05:19:05;;;;;;;15.03;9.80;;;9.90;99.90;;;;;;4896502;29;20213;-77
2024/03/01 05:21:30;;;;;;;13.80;10.47;;;9.90;99.90;;;;;;4899004;29;20183;-77
2024/03/01 05:23:57;;;;;;;13.97;9.97;;;9.90;99.90;;;;;;4895975;29;20774;-76
2024/03/01 05:26:25;;;;;;;14.30;10.52;;;9.90;99.90;;;;;;4895525;29;20289;-77
2024/03/01 05:28:52;;;;;;;15.52;11.05;;;9.90;99.90;;;;;;4894658;29;20198;-77
2024/03/01 05:31:18;;;;;;;15.40;11.40;;;9.90;99.90;;;;;;4895905;29;20546;-77
2024/03/01 05:33:44;;;;;;;13.25;10.38;;;9.90;99.90;;;;;;4894689;29;20676;-77
2024/03/01 05:36:10;;;;;;;12.30;9.43;;;9.90;99.90;;;;;;4894123;29;20178;-76
2024/03/01 05:38:36;;;;;;;14.48;10.48;;;9.90;99.90;;;;;;4894449;29;20198;-76
2024/03/01 05:41:01;;;;;;;14.50;10.10;;;10.00;99.90;;;;;;4894483;29;20179;-76
2024/03/01 05:43:27;;;;;;;16.80;11.30;;;10.00;99.90;;;;;;4894511;29;20189;-77
2024/03/01 05:45:56;;;;;;;12.00;9.83;;;10.00;99.90;;;;;;4895863;29;20641;-77
2024/03/01 05:48:23;;;;;;;13.45;9.45;;;10.00;99.90;;;;;;4895200;29;20289;-77
2024/03/01 05:50:49;;;;;;;11.48;8.43;;;10.00;99.90;;;;;;4895829;29;20579;-78
2024/03/01 05:53:14;;;;;;;12.70;9.90;;;10.00;99.90;;;;;;4894770;29;20173;-78
2024/03/01 05:55:40;;;;;;;13.67;10.37;;;10.00;99.90;;;;;;4897308;29;20245;-76
2024/03/01 05:58:07;;;;;;;15.40;10.93;;;10.00;99.90;;;;;;4899931;29;20559;-76
2024/03/01 06:00:33;;;;;;;13.55;10.50;;;10.00;99.90;;;;;;4895871;29;20297;-78
2024/03/01 06:02:59;;;;;;;15.13;10.77;;;10.00;99.90;;;;;;4895380;29;20239;-77
2024/03/01 06:05:24;;;;;;;12.70;11.30;;;10.00;99.90;;;;;;4910295;29;20277;-78
2024/03/01 06:07:50;;;;;;;11.73;10.00;;;10.00;99.90;;;;;;4895938;29;20224;-77
2024/03/01 06:10:17;;;;;;;11.82;9.05;;;10.00;99.90;;;;;;4894802;29;20210;-77
2024/03/01 06:12:43;;;;;;;15.02;10.15;;;10.00;99.90;;;;;;4894617;29;20214;-77
2024/03/01 06:15:08;;;;;;;10.77;9.48;;;10.10;99.90;;;;;;4895981;29;20202;-78
2024/03/01 06:17:35;;;;;;;13.37;8.80;;;10.10;99.90;;;;;;4895058;29;20217;-77
2024/03/01 06:20:02;;;;;;;11.00;7.60;;;10.20;99.90;;;;;;4894634;29;20551;-78
2024/03/01 06:22:29;;;;;;;13.27;8.80;;;10.20;99.90;;;;;;4894928;29;20206;-78
2024/03/01 06:24:55;;;;;;;12.05;7.90;;;10.30;99.90;;;;;;4893837;29;20190;-78
2024/03/01 06:27:21;;;;;;;12.30;7.43;;;10.40;99.90;;;;;;4894576;29;20183;-78
2024/03/01 06:29:47;;;;;;;8.27;6.27;;;10.40;99.90;;;;;;4895801;29;21001;-78
2024/03/01 06:32:13;;;;;;;4.90;3.90;;;10.50;99.90;;;;;;4894343;29;20189;-79
2024/03/01 06:34:39;;;;;;;5.83;4.00;;;10.50;99.90;;;;;;4900535;29;20638;-78
2024/03/01 06:37:05;;;;;;;3.75;2.33;;;10.60;99.90;;;;;;4896784;29;20181;-78
2024/03/01 06:39:30;;;;;;;2.73;1.80;;;10.60;99.90;;;;;;4896409;29;20198;-78
2024/03/01 06:41:56;;;;;;;2.40;1.43;;;10.70;99.90;;;;;;4896118;29;20170;-78
2024/03/01 06:44:25;;;;;;;1.87;1.33;;;10.70;99.90;;;;;;4889677;29;20576;-78
2024/03/01 06:46:54;;;;;;;2.13;0.90;;;10.70;99.90;;;;;;4904689;29;20177;-78
2024/03/01 06:49:20;;;;;;;1.40;0.70;;;10.80;99.90;;;;;;4904166;29;20205;-78
2024/03/01 06:51:46;;;;;;;1.67;0.93;;;10.80;99.90;;;;;;4917668;29;20174;-78
2024/03/01 06:54:12;;;;;;;1.50;0.80;;;10.80;99.90;;;;;;4909332;29;21045;-79
2024/03/01 06:56:43;;;;;;;1.40;0.70;;;10.80;99.90;;;;;;4917037;29;20200;-79
2024/03/01 06:59:09;;;;;;;1.33;0.70;;;10.80;99.90;;;;;;4903337;29;20665;-79
2024/03/01 07:01:35;;;;;;;2.30;0.80;;;10.90;99.90;;;;;;4900678;29;20215;-78
2024/03/01 07:04:01;;;;;;;1.30;0.70;;;10.90;99.90;;;;;;4885601;29;20186;-78
2024/03/01 07:06:31;;;;;;;1.50;0.70;;;10.90;99.90;;;;;;4902770;29;20669;-78
2024/03/01 07:08:57;;;;;;;1.65;0.80;;;11.00;99.90;;;;;;4901390;29;20545;-77
2024/03/01 07:11:25;;;;;;;1.50;1.00;;;11.00;99.90;;;;;;4903106;29;20271;-78
2024/03/01 07:13:51;;;;;;;1.40;0.88;;;11.00;99.90;;;;;;4898257;29;20624;-78
2024/03/01 07:16:17;;;;;;;1.50;0.93;;;11.00;99.90;;;;;;4902594;29;20269;-78
2024/03/01 07:18:42;;;;;;;1.80;1.37;;;11.00;99.90;;;;;;4898644;29;20636;-77
2024/03/01 07:21:08;;;;;;;1.53;0.73;;;11.00;99.90;;;;;;4899319;29;20568;-77
2024/03/01 07:23:34;;;;;;;1.70;0.83;;;11.10;99.90;;;;;;4902770;29;20186;-77
2024/03/01 07:26:00;;;;;;;1.45;0.82;;;11.10;99.90;;;;;;4899497;29;20583;-76
2024/03/01 07:28:27;;;;;;;1.63;1.00;;;11.10;99.90;;;;;;4897817;29;20950;-77
2024/03/01 07:30:52;;;;;;;4.47;1.45;;;11.10;99.90;;;;;;4896650;29;20594;-76
2024/03/01 07:33:18;;;;;;;2.20;1.10;;;11.10;99.90;;;;;;4897803;29;20179;-77
2024/03/01 07:35:44;;;;;;;1.80;1.10;;;11.10;99.90;;;;;;4897814;29;20224;-77
2024/03/01 07:38:09;;;;;;;1.70;1.10;;;11.10;99.90;;;;;;4897243;29;20262;-78
2024/03/01 07:40:35;;;;;;;2.20;1.20;;;11.10;99.90;;;;;;4895968;29;20183;-77
2024/03/01 07:43:01;;;;;;;1.80;1.30;;;11.20;99.90;;;;;;4896598;29;20214;-78
2024/03/01 07:45:26;;;;;;;1.67;1.10;;;11.20;99.90;;;;;;4898306;29;20181;-77
2024/03/01 07:47:52;;;;;;;4.67;1.47;;;11.20;99.90;;;;;;4899158;29;20567;-77
2024/03/01 07:50:20;;;;;;;2.33;1.27;;;11.20;99.90;;;;;;4911572;29;20190;-77
2024/03/01 07:52:45;;;;;;;1.60;1.00;;;11.30;99.90;;;;;;4903344;29;20190;-78
2024/03/01 07:55:14;;;;;;;2.43;0.90;;;11.30;99.90;;;;;;4900285;29;20202;-78
2024/03/01 07:57:40;;;;;;;2.28;1.00;;;11.30;99.90;;;;;;4897195;29;20198;-78
2024/03/01 08:00:06;;;;;;;1.47;0.83;;;11.30;99.90;;;;;;4899610;29;20241;-78
2024/03/01 08:02:32;;;;;;;1.60;0.80;;;11.30;99.90;;;;;;4895896;29;20591;-78
2024/03/01 08:04:58;;;;;;;1.60;0.80;;;11.30;99.90;;;;;;4897029;29;20186;-79
2024/03/01 08:07:24;;;;;;;4.60;1.00;;;11.30;99.90;;;;;;4896485;29;20205;-79
2024/03/01 08:09:49;;;;;;;2.07;0.90;;;11.30;99.90;;;;;;4895183;29;20174;-79
2024/03/01 08:12:18;;;;;;;3.30;0.80;;;11.30;99.90;;;;;;4895204;29;20669;-79
2024/03/01 08:14:44;;;;;;;2.80;1.00;;;11.30;99.90;;;;;;4896935;29;20225;-77
2024/03/01 08:17:09;;;;;;;2.00;1.13;;;11.30;99.90;;;;;;4895743;29;20724;-77
2024/03/01 08:19:46;;;;;;;2.03;0.80;;;11.40;99.90;;;;;;4895311;29;20877;-78
2024/03/01 08:22:17;;;;;;;1.60;0.80;;;11.40;99.90;;;;;;4895742;29;20269;-77
2024/03/01 08:24:46;;;;;;;2.95;1.15;;;11.40;99.90;;;;;;4898323;29;20624;-77
2024/03/01 08:27:22;;;;;;;2.45;1.17;;;11.50;99.90;;;;;;4916190;29;20182;-78
2024/03/01 08:29:47;;;;;;;3.08;1.08;;;11.50;99.90;;;;;;4911373;29;20288;-77
2024/03/01 08:32:25;;;;;;;1.70;0.87;;;11.50;99.90;;;;;;4895342;29;20265;-77
2024/03/01 08:34:52;;;;;;;1.95;1.00;;;11.50;99.90;;;;;;4896989;29;20656;-79
2024/03/01 08:37:30;;;;;;;2.53;1.40;;;11.60;99.90;;;;;;4903859;29;20197;-78
2024/03/01 08:39:57;;;;;;;1.85;1.13;;;11.60;99.90;;;;;;4900303;29;20178;-77
2024/03/01 08:42:24;;;;;;;2.35;1.65;;;11.70;99.90;;;;;;4899347;29;20860;-77
2024/03/01 08:44:59;;;;;;;1.80;1.00;;;11.70;99.90;;;;;;4894701;29;20233;-79
2024/03/01 08:47:42;;;;;;;2.80;1.10;;;11.80;99.90;;;;;;4892776;29;20217;-78
2024/03/01 08:50:25;;;;;;;1.77;0.98;;;11.80;99.90;;;;;;4894550;29;20178;-78
2024/03/01 08:52:52;;;;;;;1.98;1.08;;;11.80;99.90;;;;;;4887304;29;20272;-78
2024/03/01 08:55:21;;;;;;;2.53;1.25;;;11.80;99.90;;;;;;4893351;29;20210;-77
2024/03/01 08:57:48;;;;;;;1.60;0.90;;;11.90;99.90;;;;;;4893975;29;20222;-79
2024/03/01 09:00:39;;;;;;;7.03;1.50;;;11.90;99.90;;;;;;4895417;29;20191;-78
2024/03/01 09:03:09;;;;;;;1.95;1.00;;;11.90;99.90;;;;;;4890853;29;20273;-78
2024/03/01 09:05:39;;;;;;;1.60;0.82;;;11.90;99.90;;;;;;4899278;29;20190;-78
2024/03/01 09:08:12;;;;;;;1.65;0.80;;;11.90;99.90;;;;;;4897068;29;20230;-79
2024/03/01 09:10:37;;;;;;;2.10;0.90;;;11.90;99.90;;;;;;4896186;29;20190;-78
2024/03/01 09:13:04;;;;;;;2.23;0.90;;;11.90;99.90;;;;;;4895153;29;20334;-78
2024/03/01 09:15:39;;;;;;;2.67;1.00;;;11.90;99.90;;;;;;4896016;29;20245;-78
2024/03/01 09:18:16;;;;;;;2.40;0.90;;;11.90;99.90;;;;;;4894122;29;20300;-78
2024/03/01 09:20:44;;;;;;;2.55;1.00;;;11.90;99.90;;;;;;4894313;29;20186;-78
2024/03/01 09:23:14;;;;;;;2.38;0.85;;;11.90;99.90;;;;;;4894877;29;20182;-78
2024/03/01 09:25:51;;;;;;;1.50;0.68;;;12.00;99.90;;;;;;4896086;29;20583;-79
2024/03/01 09:28:22;;;;;;;2.72;0.98;;;12.00;99.90;;;;;;4894783;29;20253;-78
2024/03/01 09:30:50;;;;;;;1.60;0.77;;;12.10;99.90;;;;;;4895926;29;20190;-78
2024/03/01 09:33:17;;;;;;;2.25;1.38;;;12.20;99.90;;;;;;4895597;29;20583;-78
2024/03/01 09:35:43;;;;;;;1.60;0.70;;;12.40;99.90;;;;;;4895826;29;20195;-79
2024/03/01 09:38:11;;;;;;;1.90;0.67;;;12.60;99.90;;;;;;4895356;29;20630;-79
2024/03/01 09:40:57;;;;;;;2.00;0.70;;;13.10;99.90;;;;;;4895470;29;20590;-79
2024/03/01 09:43:49;;;;;;;1.80;0.80;;;13.60;99.90;;;;;;4896374;29;20579;-79
2024/03/01 09:46:52;;;;;;;1.87;0.70;;;14.20;99.90;;;;;;4909918;29;20599;-79
2024/03/01 09:49:50;;;;;;;1.60;1.00;;;14.80;99.90;;;;;;4895685;29;20621;-79
2024/03/01 09:52:30;;;;;;;1.93;0.73;;;15.60;99.90;;;;;;4883078;29;20629;-79
2024/03/01 09:55:22;;;;;;;2.60;0.70;;;16.00;99.90;;;;;;4894531;29;20697;-79
2024/03/01 09:58:05;;;;;;;2.10;0.90;;;16.20;99.90;;;;;;4891853;29;20623;-79
2024/03/01 10:00:35;;;;;;;1.77;0.73;;;16.30;99.90;;;;;;4892872;29;20586;-79
2024/03/01 10:03:25;;;;;;;2.07;0.90;;;16.30;99.90;;;;;;4894583;29;20602;-78
2024/03/01 10:06:00;;;;;;;1.93;0.70;;;16.20;99.90;;;;;;4895790;29;20630;-79
2024/03/01 10:08:41;;;;;;;1.70;0.80;;;16.10;99.90;;;;;;4895039;29;21017;-79
2024/03/01 10:11:15;;;;;;;1.97;0.70;;;15.90;99.90;;;;;;4895512;29;20630;-79
2024/03/01 10:14:20;;;;;;;1.53;0.70;;;15.90;99.90;;;;;;4894313;29;21179;-79
2024/03/01 10:17:13;;;;;;;1.70;0.77;;;16.00;99.90;;;;;;4873942;29;20696;-79
2024/03/01 10:19:57;;;;;;;1.60;0.90;;;16.60;99.90;;;;;;4897740;29;20662;-80
2024/03/01 10:23:01;;;;;;;1.50;0.70;;;17.50;99.90;;;;;;4894422;29;21030;-79
2024/03/01 10:25:45;;;;;;;1.40;0.60;;;18.50;99.90;;;;;;4894195;29;21200;-80
2024/03/01 10:28:30;;;;;;;1.57;0.60;;;19.50;99.90;;;;;;4883956;29;20647;-80
2024/03/01 10:31:18;;;;;;;1.53;0.50;;;20.20;99.90;;;;;;4893866;29;20610;-80
2024/03/01 10:34:06;;;;;;;1.40;0.50;;;20.80;99.90;;;;;;4895300;29;20598;-80
2024/03/01 10:36:40;;;;;;;1.50;0.50;;;21.30;99.90;;;;;;4893558;29;20655;-80
2024/03/01 10:39:19;;;;;;;1.30;0.50;;;21.40;99.90;;;;;;4895697;29;20654;-80
2024/03/01 10:42:05;;;;;;;1.40;0.60;;;21.40;99.90;;;;;;4897643;29;20590;-79
2024/03/01 10:44:43;;;;;;;1.47;0.50;;;21.20;99.90;;;;;;4898243;29;20599;-79
2024/03/01 10:47:16;;;;;;;1.40;0.60;;;20.90;99.90;;;;;;4886315;29;20698;-79
2024/03/01 10:50:07;;;;;;;1.70;0.40;;;20.50;99.90;;;;;;4889528;29;20696;-79
2024/03/01 10:52:40;;;;;;;1.20;0.40;;;20.00;99.90;;;;;;4898768;29;20602;-79
2024/03/01 10:55:29;;;;;;;1.30;0.50;;;19.50;99.90;;;;;;4898876;29;20646;-80
2024/03/01 10:58:15;;;;;;;1.20;0.50;;;19.10;99.90;;;;;;4901980;29;20622;-79
2024/03/01 11:01:03;;;;;;;1.40;0.60;;;18.70;99.90;;;;;;4898608;29;20621;-79
2024/03/01 11:03:38;;;;;;;1.30;0.50;;;18.30;99.90;;;;;;4897325;29;20606;-79
2024/03/01 11:06:16;;;;;;;1.37;0.47;;;18.00;99.90;;;;;;4898794;29;20601;-79
2024/03/01 11:09:00;;;;;;;1.20;0.40;;;17.70;99.90;;;;;;4896885;29;20622;-79
2024/03/01 11:12:02;;;;;;;1.50;0.40;;;17.50;99.90;;;;;;4894753;29;20946;-79
2024/03/01 11:14:33;;;;;;;2.07;0.50;;;17.50;99.90;;;;;;4898229;29;20665;-79
2024/03/01 11:17:00;;;;;;;2.47;0.57;;;17.50;99.90;;;;;;4897814;29;20721;-78
2024/03/01 11:19:29;;;;;;;2.07;0.70;;;17.50;99.90;;;;;;4897438;29;20629;-79
2024/03/01 11:22:10;;;;;;;2.90;0.40;;;17.50;99.90;;;;;;4898285;29;20962;-79
2024/03/01 11:24:43;;;;;;;1.83;0.50;;;17.50;99.90;;;;;;4890682;29;20582;-79
2024/03/01 11:27:14;;;;;;;1.20;0.40;;;17.80;99.90;;;;;;4896628;29;20623;-79
2024/03/01 11:29:51;;;;;;;1.93;0.50;;;18.10;99.90;;;;;;4897630;29;20618;-79
2024/03/01 11:32:22;;;;;;;1.97;0.93;;;18.40;99.90;;;;;;4889946;29;20598;-79
2024/03/01 11:35:13;;;;;;;1.30;0.40;;;18.60;99.90;;;;;;4915491;29;20674;-80
2024/03/01 11:37:57;;;;;;;1.43;0.47;;;18.60;99.90;;;;;;4895984;29;20622;-79
2024/03/01 11:40:56;;;;;;;1.37;0.50;;;18.80;99.90;;;;;;4897199;29;20598;-80
2024/03/01 11:43:36;;;;;;;1.20;0.40;;;19.10;99.90;;;;;;4893297;29;20582;-79
2024/03/01 11:46:30;;;;;;;2.47;0.50;;;19.50;99.90;;;;;;4897227;29;20674;-79
2024/03/01 11:49:12;;;;;;;2.03;0.50;;;19.70;99.90;;;;;;4896272;29;20625;-79
2024/03/01 11:51:52;;;;;;;1.40;0.50;;;20.00;99.90;;;;;;4895543;29;21018;-79
2024/03/01 11:54:40;;;;;;;1.33;0.47;;;20.00;99.90;;;;;;4896342;29;20642;-79
2024/03/01 11:57:20;;;;;;;1.50;0.60;;;20.10;99.90;;;;;;4890378;29;20593;-79
2024/03/01 12:00:04;;;;;;;1.60;0.57;;;20.10;99.90;;;;;;4896062;29;21263;-79
2024/03/01 12:02:49;;;;;;;1.80;0.50;;;20.00;99.90;;;;;;4896374;29;20606;-78
2024/03/01 12:05:26;;;;;;;7.90;1.17;;;19.70;99.20;;;;;;4890914;29;20594;-79
2024/03/01 12:07:52;;;;;;;1.33;0.50;;;19.70;99.90;;;;;;4896758;29;20755;-78
2024/03/01 12:10:44;;;;;;;1.50;0.60;;;19.70;98.60;;;;;;4899610;29;20590;-78
2024/03/01 12:13:13;;;;;;;1.80;0.50;;;19.40;96.10;;;;;;4897647;29;20186;-78
2024/03/01 12:16:32;;;;;;;2.70;0.60;;;19.10;95.60;;;;;;4897181;29;20755;-78
2024/03/01 12:19:14;;;;;;;1.60;0.60;;;18.90;96.70;;;;;;4823639;29;20629;-78
2024/03/01 12:22:10;;;;;;;1.70;0.60;;;18.80;96.50;;;;;;4895736;29;20634;-78
2024/03/01 12:24:39;;;;;;;3.70;2.17;;;18.60;96.70;;;;;;4897153;29;20591;-79
2024/03/01 12:27:14;;;;;;;2.83;1.20;;;18.40;94.10;;;;;;4896506;29;21590;-78
2024/03/01 12:30:07;;;;;;;4.43;2.77;;;17.90;91.90;;;;;;4896783;29;20622;-79
2024/03/01 12:32:38;;;;;;;3.83;1.80;;;17.50;91.20;;;;;;4897195;29;20733;-79
2024/03/01 12:35:29;;;;;;;2.57;0.97;;;17.20;92.70;;;;;;4889879;29;20681;-79
2024/03/01 12:38:23;;;;;;;2.30;0.77;;;16.80;91.70;;;;;;4896195;29;20978;-78
2024/03/01 12:40:57;;;;;;;1.93;0.80;;;16.50;92.50;;;;;;4895289;29;20630;-79
2024/03/01 12:43:54;;;;;;;1.40;0.70;;;16.30;93.40;;;;;;4897097;29;20597;-78
2024/03/01 12:46:19;;;;;;;2.43;0.93;;;16.10;93.30;;;;;;4896703;29;20595;-77
2024/03/01 12:49:27;;;;;;;2.33;0.90;;;15.90;92.40;;;;;;4900064;29;20683;-77
2024/03/01 12:52:01;;;;;;;2.60;1.17;;;15.60;92.50;;;;;;4895411;29;20253;-77
2024/03/01 12:55:05;;;;;;;3.97;1.00;;;15.40;92.30;;;;;;4896072;29;20633;-77
2024/03/01 12:57:37;;;;;;;1.60;0.70;;;15.00;92.60;;;;;;4892356;29;21280;-77
2024/03/01 13:00:14;;;;;;;1.90;0.70;;;14.90;93.20;;;;;;4903584;29;20686;-77